createdAt,value
2019-05-17T00:02:17.487Z,16.20
2019-05-17T00:04:47.165Z,16.20
2019-05-17T00:07:17.499Z,16.10
2019-05-17T00:09:47.844Z,16.10
2019-05-17T00:12:17.694Z,16.10
2019-05-17T00:14:47.348Z,16.00
2019-05-17T00:17:17.570Z,16.00
2019-05-17T00:19:47.215Z,16.00
2019-05-17T00:22:16.858Z,16.00
2019-05-17T00:24:47.837Z,16.00
2019-05-17T00:27:18.799Z,16.00
2019-05-17T00:29:48.409Z,15.90
2019-05-17T00:32:17.815Z,15.90
2019-05-17T00:34:47.375Z,15.90
2019-05-17T00:37:17.774Z,15.80
2019-05-17T00:39:47.617Z,15.90
2019-05-17T00:42:17.260Z,15.80
2019-05-17T00:44:47.383Z,15.80
2019-05-17T00:47:19.588Z,15.80
2019-05-17T00:49:49.338Z,15.80
2019-05-17T00:52:19.355Z,15.80
2019-05-17T00:54:49.530Z,15.80
2019-05-17T00:57:20.548Z,15.70
2019-05-17T00:59:50.964Z,15.80
2019-05-17T01:02:21.007Z,15.80
2019-05-17T01:04:50.422Z,15.80
2019-05-17T01:07:22.846Z,15.70
2019-05-17T01:09:56.571Z,15.70
2019-05-17T01:12:36.605Z,15.70
2019-05-17T01:15:09.088Z,15.70
2019-05-17T01:17:38.624Z,15.70
2019-05-17T01:20:09.065Z,15.70
2019-05-17T01:22:39.298Z,15.70
2019-05-17T01:25:12.150Z,15.70
2019-05-17T01:27:52.305Z,15.60
2019-05-17T01:30:28.468Z,15.60
2019-05-17T01:33:01.857Z,15.60
2019-05-17T01:35:37.141Z,15.60
2019-05-17T01:38:09.487Z,15.50
2019-05-17T01:40:46.480Z,15.50
2019-05-17T01:43:27.186Z,15.50
2019-05-17T01:49:02.792Z,15.40
2019-05-17T01:51:29.586Z,15.40
2019-05-17T01:54:00.157Z,15.40
2019-05-17T01:56:36.992Z,15.40
2019-05-17T01:59:09.606Z,15.40
2019-05-17T02:01:41.335Z,15.40
2019-05-17T02:04:14.184Z,15.40
2019-05-17T02:06:49.524Z,15.40
2019-05-17T02:09:34.846Z,15.40
2019-05-17T02:11:53.613Z,15.40
2019-05-17T02:14:23.342Z,15.30
2019-05-17T02:16:52.849Z,15.30
2019-05-17T02:19:26.960Z,15.40
2019-05-17T02:21:57.092Z,15.30
2019-05-17T02:24:41.682Z,15.30
2019-05-17T02:27:11.254Z,15.40
2019-05-17T02:29:42.421Z,15.40
2019-05-17T02:32:13.895Z,15.30
2019-05-17T02:34:53.017Z,15.30
2019-05-17T02:37:29.472Z,15.30
2019-05-17T02:40:07.227Z,15.40
2019-05-17T02:42:42.978Z,15.40
2019-05-17T02:45:15.017Z,15.40
2019-05-17T02:47:49.503Z,15.30
2019-05-17T02:50:19.337Z,15.40
2019-05-17T02:52:52.778Z,15.30
2019-05-17T02:55:26.059Z,15.20
2019-05-17T02:57:58.135Z,15.20
2019-05-17T03:00:28.719Z,15.10
2019-05-17T03:03:03.388Z,15.10
2019-05-17T03:05:34.133Z,15.00
2019-05-17T03:08:04.550Z,15.00
2019-05-17T03:10:34.261Z,14.90
2019-05-17T03:13:05.423Z,14.90
2019-05-17T03:15:37.327Z,14.90
2019-05-17T03:18:08.977Z,14.80
2019-05-17T03:20:38.436Z,14.80
2019-05-17T03:23:08.300Z,14.80
2019-05-17T03:25:37.757Z,14.80
2019-05-17T03:28:07.334Z,14.80
2019-05-17T03:30:46.023Z,14.70
2019-05-17T03:33:15.968Z,14.60
2019-05-17T03:35:45.794Z,14.60
2019-05-17T03:38:14.326Z,14.60
2019-05-17T03:41:07.712Z,14.50
2019-05-17T03:43:16.664Z,14.60
2019-05-17T03:45:46.287Z,14.50
2019-05-17T03:48:22.140Z,14.50
2019-05-17T03:50:53.042Z,14.50
2019-05-17T03:53:23.048Z,14.60
2019-05-17T03:55:53.954Z,14.60
2019-05-17T03:58:23.868Z,14.60
2019-05-17T04:00:53.721Z,14.60
2019-05-17T04:03:23.367Z,14.60
2019-05-17T04:05:54.295Z,14.60
2019-05-17T04:08:23.707Z,14.60
2019-05-17T04:10:53.238Z,14.60
2019-05-17T04:13:23.527Z,14.60
2019-05-17T04:15:53.401Z,14.60
2019-05-17T04:18:23.670Z,14.60
2019-05-17T04:20:53.214Z,14.60
2019-05-17T04:23:23.568Z,14.60
2019-05-17T04:25:53.357Z,14.60
2019-05-17T04:28:23.299Z,14.60
2019-05-17T04:30:53.694Z,14.60
2019-05-17T04:33:23.619Z,14.60
2019-05-17T04:35:54.114Z,14.60
2019-05-17T04:38:24.067Z,14.50
2019-05-17T04:40:54.628Z,14.50
2019-05-17T04:43:24.081Z,14.50
2019-05-17T04:45:53.920Z,14.50
2019-05-17T04:48:24.453Z,14.50
2019-05-17T04:51:02.570Z,14.60
2019-05-17T04:56:14.317Z,14.60
2019-05-17T04:58:50.195Z,14.60
2019-05-17T05:01:18.680Z,14.70
2019-05-17T05:03:48.046Z,14.70
2019-05-17T05:06:23.155Z,14.70
2019-05-17T05:08:53.880Z,14.80
2019-05-17T05:11:23.584Z,14.80
2019-05-17T05:13:53.188Z,14.90
2019-05-17T05:16:22.782Z,14.90
2019-05-17T05:21:53.140Z,15.10
2019-05-17T05:27:27.540Z,15.10
2019-05-17T05:29:56.981Z,15.20
2019-05-17T05:32:26.552Z,15.30
2019-05-17T05:34:56.132Z,15.40
2019-05-17T05:37:25.739Z,15.40
2019-05-17T05:39:56.201Z,15.50
2019-05-17T05:42:25.634Z,15.60
2019-05-17T05:44:55.619Z,15.70
2019-05-17T05:47:25.300Z,15.80
2019-05-17T05:49:57.606Z,15.90
2019-05-17T05:52:28.657Z,16.00
2019-05-17T05:54:58.260Z,16.00
2019-05-17T05:57:27.631Z,16.10
2019-05-17T05:59:57.632Z,16.20
2019-05-17T06:02:27.134Z,16.40
2019-05-17T06:07:52.286Z,16.60
2019-05-17T06:10:26.178Z,16.80
2019-05-17T06:13:06.377Z,16.80
2019-05-17T06:15:36.031Z,17.00
2019-05-17T06:21:17.479Z,17.30
2019-05-17T06:24:03.380Z,17.40
2019-05-17T06:26:44.379Z,17.50
2019-05-17T06:29:29.895Z,17.60
2019-05-17T06:35:08.198Z,17.80
2019-05-17T06:41:33.790Z,17.90
2019-05-17T06:43:17.571Z,18.00
2019-05-17T06:48:43.085Z,18.00
2019-05-17T06:57:13.965Z,18.00
2019-05-17T07:00:19.890Z,17.90
2019-05-17T07:03:09.125Z,18.00
2019-05-17T07:05:45.834Z,18.00
2019-05-17T07:24:00.499Z,18.30
2019-05-17T07:29:54.644Z,18.30
2019-05-17T07:32:33.820Z,18.40
2019-05-17T07:48:55.505Z,18.80
2019-05-17T08:01:02.150Z,19.40
2019-05-17T08:35:50.640Z,21.60
2019-05-17T09:00:40.509Z,23.40
2019-05-17T09:25:59.372Z,25.90
2019-05-17T09:28:30.025Z,25.80
2019-05-17T10:16:00.407Z,24.90
2019-05-17T10:33:06.725Z,26.00
2019-05-17T10:39:24.754Z,26.10
2019-05-17T14:41:04.140Z,27.60
2019-05-17T14:43:05.190Z,27.60
2019-05-17T14:45:41.745Z,27.50
2019-05-17T14:48:15.775Z,27.10
2019-05-17T14:51:07.335Z,26.90
2019-05-17T14:53:48.933Z,26.80
2019-05-17T14:56:56.587Z,26.80
2019-05-17T15:02:47.537Z,27.10
2019-05-17T15:05:40.510Z,27.00
2019-05-17T15:08:25.028Z,26.80
2019-05-17T15:11:08.306Z,26.90
2019-05-17T15:13:38.522Z,27.10
2019-05-17T15:16:09.281Z,27.20
2019-05-17T15:18:39.062Z,27.40
2019-05-17T15:21:25.029Z,27.40
2019-05-17T15:23:54.791Z,27.50
2019-05-17T15:26:26.146Z,27.40
2019-05-17T15:28:55.554Z,27.30
2019-05-17T15:31:24.911Z,27.20
2019-05-17T15:33:54.278Z,26.90
2019-05-17T15:36:23.701Z,26.70
2019-05-17T15:38:53.225Z,26.40
2019-05-17T15:41:22.663Z,26.10
2019-05-17T15:43:52.141Z,25.90
2019-05-17T15:46:21.701Z,25.80
2019-05-17T15:48:51.057Z,25.70
2019-05-17T15:51:20.535Z,25.80
2019-05-17T15:53:49.964Z,25.80
2019-05-17T15:56:19.448Z,25.80
2019-05-17T15:58:48.793Z,25.80
2019-05-17T16:01:18.262Z,25.90
2019-05-17T16:03:47.719Z,25.90
2019-05-17T16:06:18.339Z,25.80
2019-05-17T16:08:49.312Z,25.70
2019-05-17T16:11:18.737Z,25.60
2019-05-17T16:13:48.181Z,25.40
2019-05-17T16:16:17.851Z,25.20
2019-05-17T16:18:47.196Z,25.00
2019-05-17T16:21:16.604Z,24.90
2019-05-17T16:23:45.965Z,24.80
2019-05-17T16:26:15.457Z,24.70
2019-05-17T16:28:45.871Z,24.70
2019-05-17T16:31:15.389Z,24.60
2019-05-17T16:33:45.004Z,24.60
2019-05-17T16:36:14.365Z,24.50
2019-05-17T16:38:43.834Z,24.50
2019-05-17T16:41:13.230Z,24.40
2019-05-17T16:43:42.583Z,24.40
2019-05-17T16:46:12.017Z,24.30
2019-05-17T16:48:41.457Z,24.30
2019-05-17T16:51:11.887Z,24.20
2019-05-17T16:53:41.225Z,24.20
2019-05-17T16:56:10.638Z,24.10
2019-05-17T16:58:40.152Z,23.80
2019-05-17T17:01:09.580Z,23.70
2019-05-17T17:03:44.301Z,23.50
2019-05-17T17:06:10.619Z,23.40
2019-05-17T17:08:41.584Z,23.30
2019-05-17T17:11:11.085Z,23.30
2019-05-17T17:13:40.638Z,23.20
2019-05-17T17:16:10.003Z,23.20
2019-05-17T17:18:40.421Z,23.10
2019-05-17T17:21:10.096Z,23.00
2019-05-17T17:26:08.025Z,22.80
2019-05-17T17:28:37.457Z,22.80
2019-05-17T17:31:11.023Z,22.70
2019-05-17T17:33:40.525Z,22.50
2019-05-17T17:36:09.943Z,22.40
2019-05-17T17:38:39.303Z,22.30
2019-05-17T17:41:08.724Z,22.20
2019-05-17T17:43:39.147Z,22.10
2019-05-17T17:46:08.607Z,22.00
2019-05-17T17:48:37.969Z,21.90
2019-05-17T17:51:07.436Z,21.80
2019-05-17T17:53:36.862Z,21.70
2019-05-17T17:56:06.283Z,21.60
2019-05-17T17:58:35.731Z,21.60
2019-05-17T18:01:05.355Z,21.50
2019-05-17T18:03:34.900Z,21.40
2019-05-17T18:06:04.411Z,21.30
2019-05-17T18:08:34.720Z,21.20
2019-05-17T18:11:04.413Z,21.10
2019-05-17T18:13:33.767Z,21.10
2019-05-17T18:16:03.143Z,21.00
2019-05-17T18:18:32.655Z,20.90
2019-05-17T18:21:02.061Z,20.80
2019-05-17T18:23:31.477Z,20.70
2019-05-17T18:26:00.820Z,20.70
2019-05-17T18:28:30.245Z,20.60
2019-05-17T18:30:59.658Z,20.50
2019-05-17T18:33:29.239Z,20.40
2019-05-17T18:35:58.818Z,20.30
2019-05-17T18:38:29.822Z,20.20
2019-05-17T18:40:59.238Z,20.20
2019-05-17T18:43:28.771Z,20.10
2019-05-17T18:45:58.246Z,20.00
2019-05-17T18:48:27.644Z,19.90
2019-05-17T18:50:57.178Z,19.80
2019-05-17T18:53:26.584Z,19.70
2019-05-17T18:55:55.954Z,19.70
2019-05-17T18:58:25.479Z,19.60
2019-05-17T19:00:54.831Z,19.50
2019-05-17T19:03:24.189Z,19.50
2019-05-17T19:05:53.553Z,19.50
2019-05-17T19:08:22.894Z,19.40
2019-05-17T19:10:52.243Z,19.40
2019-05-17T19:13:21.592Z,19.40
2019-05-17T19:15:51.009Z,19.40
2019-05-17T19:18:20.442Z,19.30
2019-05-17T19:20:50.828Z,19.30
2019-05-17T19:23:20.294Z,19.20
2019-05-17T19:25:49.775Z,19.20
2019-05-17T19:28:19.206Z,19.20
2019-05-17T19:30:48.632Z,19.10
2019-05-17T19:33:18.087Z,19.10
2019-05-17T19:35:47.616Z,19.00
2019-05-17T19:38:17.141Z,19.00
2019-05-17T19:40:46.629Z,19.00
2019-05-17T19:43:16.178Z,19.00
2019-05-17T19:45:45.637Z,18.90
2019-05-17T19:48:15.220Z,18.90
2019-05-17T19:50:44.766Z,18.90
2019-05-17T19:53:14.262Z,18.80
2019-05-17T19:55:43.737Z,18.80
2019-05-17T19:58:13.190Z,18.80
2019-05-17T20:00:42.663Z,18.80
2019-05-17T20:03:12.364Z,18.70
2019-05-17T20:05:41.760Z,18.70
2019-05-17T20:08:11.381Z,18.70
2019-05-17T20:10:41.456Z,18.60
2019-05-17T20:13:10.925Z,18.60
2019-05-17T20:15:40.547Z,18.60
2019-05-17T20:18:10.286Z,18.50
2019-05-17T20:20:39.878Z,18.50
2019-05-17T20:23:09.321Z,18.50
2019-05-17T20:25:38.785Z,18.40
2019-05-17T20:28:08.300Z,18.40
2019-05-17T20:30:37.786Z,18.40
2019-05-17T20:33:09.215Z,18.40
2019-05-17T20:35:39.720Z,18.40
2019-05-17T20:38:09.316Z,18.30
2019-05-17T20:40:40.745Z,18.30
2019-05-17T20:43:10.332Z,18.30
2019-05-17T20:45:39.863Z,18.30
2019-05-17T20:48:09.401Z,18.30
2019-05-17T20:50:39.010Z,18.30
2019-05-17T20:53:18.322Z,18.20
2019-05-17T20:55:39.794Z,18.20
2019-05-17T20:58:09.312Z,18.20
2019-05-17T21:00:39.200Z,18.20
2019-05-17T21:03:08.668Z,18.10
2019-05-17T21:05:38.112Z,18.10
2019-05-17T21:08:07.701Z,18.10
2019-05-17T21:10:37.207Z,18.10
2019-05-17T21:13:08.228Z,18.10
2019-05-17T21:15:47.476Z,18.10
2019-05-17T21:18:09.943Z,18.00
2019-05-17T21:20:39.520Z,18.00
2019-05-17T21:23:09.564Z,18.00
2019-05-17T21:25:39.158Z,18.00
2019-05-17T21:28:08.872Z,18.00
2019-05-17T21:30:38.429Z,18.00
2019-05-17T21:33:07.924Z,18.00
2019-05-17T21:35:37.352Z,18.00
2019-05-17T21:38:06.794Z,18.00
2019-05-17T21:40:36.215Z,18.00
2019-05-17T21:43:05.582Z,18.00
2019-05-17T21:45:34.905Z,18.00
2019-05-17T21:48:04.332Z,18.00
2019-05-17T21:50:33.672Z,18.00
2019-05-17T21:53:03.182Z,18.00
2019-05-17T21:55:32.607Z,18.00
2019-05-17T21:58:02.007Z,18.00
2019-05-17T22:00:51.606Z,18.00
2019-05-17T22:03:21.298Z,18.00
2019-05-17T22:05:51.726Z,18.00
2019-05-17T22:08:21.177Z,18.00
2019-05-17T22:10:50.549Z,17.90
2019-05-17T22:13:19.945Z,17.90
2019-05-17T22:15:49.334Z,17.90
2019-05-17T22:18:18.855Z,18.00
2019-05-17T22:20:48.319Z,17.90
2019-05-17T22:23:17.669Z,17.90
2019-05-17T22:25:47.100Z,17.80
2019-05-17T22:28:16.523Z,17.80
2019-05-17T22:30:45.951Z,17.80
2019-05-17T22:33:15.305Z,17.80
2019-05-17T22:35:44.669Z,17.70
2019-05-17T22:38:14.264Z,17.70
2019-05-17T22:40:43.710Z,17.70
2019-05-17T22:43:13.062Z,17.70
2019-05-17T22:45:42.404Z,17.70
2019-05-17T22:48:11.828Z,17.70
2019-05-17T22:50:41.432Z,17.70
2019-05-17T22:53:10.783Z,17.70
2019-05-17T22:55:40.127Z,17.70
2019-05-17T22:58:09.463Z,17.70
2019-05-17T23:00:38.884Z,17.70
2019-05-17T23:03:08.264Z,17.70
2019-05-17T23:05:37.692Z,17.70
2019-05-17T23:08:07.059Z,17.70
2019-05-17T23:10:37.550Z,17.70
2019-05-17T23:13:06.922Z,17.80
2019-05-17T23:15:37.901Z,17.70
2019-05-17T23:18:07.335Z,17.70
2019-05-17T23:20:37.682Z,17.70
2019-05-17T23:23:07.039Z,17.70
2019-05-17T23:25:36.471Z,17.70
2019-05-17T23:28:05.898Z,17.70
2019-05-17T23:30:35.222Z,17.70
2019-05-17T23:33:04.606Z,17.70
2019-05-17T23:35:33.944Z,17.70
2019-05-17T23:38:03.294Z,17.70
2019-05-17T23:40:32.721Z,17.70
2019-05-17T23:43:02.112Z,17.70
2019-05-17T23:45:31.518Z,17.70
2019-05-17T23:48:00.947Z,17.70
2019-05-17T23:50:30.322Z,17.70
2019-05-17T23:53:00.732Z,17.70
2019-05-17T23:55:30.085Z,17.70
2019-05-17T23:57:59.499Z,17.70
